KLM1848 VYYY-VTBS
Flight info
| Callsign | KLM1848 |
|---|---|
| Flight time | 0h 49m |
| Altitude | 35000 |
| Route | BETNO G463 TARED WILLA1C |
| Aircraft | B738/M-L/S |
Departure
| Time | 2026-05-04 03:48 |
|---|---|
| Airport | Yangon International Airport (VYYY) |
Arrival
| Time | 2026-05-04 04:37 |
|---|---|
| Airport | Suvarnabhumi Airport (VTBS) |
| Time | Latitude | Longitude | Altitude | Speed | Heading |
|---|---|---|---|---|---|
| 2026-05-04 03:24 | 16.90482 | 96.13547 | 102 ft | 0 kts | 124° |
| 2026-05-04 03:25 | 16.90489 | 96.13536 | 102 ft | 2 kts | 124° |
| 2026-05-04 03:25 | 16.90497 | 96.13523 | 101 ft | 2 kts | 124° |
| 2026-05-04 03:25 | 16.90505 | 96.13511 | 101 ft | 2 kts | 124° |
| 2026-05-04 03:25 | 16.90514 | 96.13497 | 101 ft | 2 kts | 124° |
| 2026-05-04 03:26 | 16.90522 | 96.13484 | 101 ft | 2 kts | 124° |
| 2026-05-04 03:26 | 16.90531 | 96.13471 | 101 ft | 2 kts | 124° |
| 2026-05-04 03:26 | 16.90539 | 96.13458 | 101 ft | 1 kts | 124° |
| 2026-05-04 03:26 | 16.90544 | 96.13451 | 100 ft | 1 kts | 105° |
| 2026-05-04 03:27 | 16.90542 | 96.13442 | 101 ft | 1 kts | 47° |
| 2026-05-04 03:27 | 16.90537 | 96.13438 | 101 ft | 0 kts | 28° |
| 2026-05-04 03:27 | 16.90534 | 96.13436 | 101 ft | 0 kts | 33° |
| 2026-05-04 03:32 | 16.90541 | 96.13441 | 100 ft | 4 kts | 33° |
| 2026-05-04 03:32 | 16.90595 | 96.13478 | 98 ft | 14 kts | 33° |
| 2026-05-04 03:32 | 16.90711 | 96.13558 | 94 ft | 24 kts | 33° |
| 2026-05-04 03:33 | 16.90879 | 96.13673 | 91 ft | 32 kts | 33° |
| 2026-05-04 03:33 | 16.91066 | 96.13802 | 88 ft | 31 kts | 33° |
| 2026-05-04 03:33 | 16.91251 | 96.13929 | 81 ft | 30 kts | 33° |
| 2026-05-04 03:33 | 16.91423 | 96.14046 | 72 ft | 29 kts | 32° |
| 2026-05-04 03:34 | 16.91591 | 96.14158 | 61 ft | 28 kts | 32° |
| 2026-05-04 03:34 | 16.91774 | 96.14282 | 51 ft | 34 kts | 33° |
| 2026-05-04 03:34 | 16.91975 | 96.14417 | 44 ft | 35 kts | 32° |
| 2026-05-04 03:34 | 16.92162 | 96.14547 | 40 ft | 27 kts | 33° |
| 2026-05-04 03:35 | 16.92299 | 96.14537 | 40 ft | 16 kts | 309° |
| 2026-05-04 03:35 | 16.92349 | 96.14453 | 41 ft | 10 kts | 269° |
| 2026-05-04 03:35 | 16.92322 | 96.14417 | 42 ft | 0 kts | 212° |
| 2026-05-04 03:47 | 16.92280 | 96.14387 | 44 ft | 38 kts | 213° |
| 2026-05-04 03:48 | 16.91726 | 96.14011 | 68 ft | 144 kts | 213° |
| 2026-05-04 03:48 | 16.90791 | 96.13370 | 846 ft | 170 kts | 211° |
| 2026-05-04 03:48 | 16.89705 | 96.12821 | 1911 ft | 185 kts | 196° |
| 2026-05-04 03:48 | 16.88458 | 96.12570 | 2786 ft | 197 kts | 179° |
| 2026-05-04 03:49 | 16.87128 | 96.13088 | 3369 ft | 223 kts | 138° |
| 2026-05-04 03:49 | 16.86362 | 96.14520 | 4163 ft | 237 kts | 103° |
| 2026-05-04 03:49 | 16.86017 | 96.16193 | 5049 ft | 245 kts | 108° |
| 2026-05-04 03:49 | 16.85154 | 96.17750 | 5994 ft | 255 kts | 129° |
| 2026-05-04 03:50 | 16.84012 | 96.19153 | 7090 ft | 264 kts | 130° |
| 2026-05-04 03:50 | 16.82804 | 96.20611 | 8061 ft | 276 kts | 131° |
| 2026-05-04 03:50 | 16.81527 | 96.22131 | 9170 ft | 283 kts | 131° |
| 2026-05-04 03:50 | 16.80235 | 96.23656 | 10249 ft | 289 kts | 131° |
| 2026-05-04 03:51 | 16.78853 | 96.25282 | 10816 ft | 314 kts | 131° |
| 2026-05-04 03:51 | 16.77352 | 96.27047 | 11450 ft | 334 kts | 131° |
| 2026-05-04 03:51 | 16.75800 | 96.28869 | 12400 ft | 342 kts | 131° |
| 2026-05-04 03:51 | 16.74216 | 96.30728 | 13338 ft | 348 kts | 131° |
| 2026-05-04 03:52 | 16.72607 | 96.32616 | 14286 ft | 354 kts | 131° |
| 2026-05-04 03:52 | 16.70979 | 96.34525 | 15204 ft | 359 kts | 131° |
| 2026-05-04 03:52 | 16.69319 | 96.36471 | 16098 ft | 364 kts | 131° |
| 2026-05-04 03:52 | 16.67638 | 96.38441 | 16959 ft | 368 kts | 131° |
| 2026-05-04 03:53 | 16.65929 | 96.40442 | 17794 ft | 373 kts | 131° |
| 2026-05-04 03:53 | 16.64207 | 96.42460 | 18592 ft | 377 kts | 131° |
| 2026-05-04 03:53 | 16.62472 | 96.44491 | 19362 ft | 382 kts | 131° |
| 2026-05-04 03:53 | 16.60700 | 96.46566 | 20110 ft | 386 kts | 131° |
| 2026-05-04 03:54 | 16.58907 | 96.48666 | 20838 ft | 390 kts | 131° |
| 2026-05-04 03:54 | 16.57114 | 96.50764 | 21553 ft | 394 kts | 131° |
| 2026-05-04 03:54 | 16.55281 | 96.52909 | 22230 ft | 398 kts | 131° |
| 2026-05-04 03:54 | 16.53447 | 96.55053 | 22880 ft | 401 kts | 131° |
| 2026-05-04 03:55 | 16.51575 | 96.57242 | 23510 ft | 405 kts | 131° |
| 2026-05-04 03:55 | 16.49712 | 96.59419 | 24109 ft | 409 kts | 131° |
| 2026-05-04 03:55 | 16.47820 | 96.61631 | 24691 ft | 413 kts | 131° |
| 2026-05-04 03:55 | 16.45916 | 96.63854 | 25250 ft | 416 kts | 131° |
| 2026-05-04 03:56 | 16.43966 | 96.66132 | 25801 ft | 420 kts | 132° |
| 2026-05-04 03:56 | 16.42031 | 96.68391 | 26321 ft | 423 kts | 132° |
| 2026-05-04 03:56 | 16.40084 | 96.70664 | 26825 ft | 426 kts | 132° |
| 2026-05-04 03:56 | 16.38106 | 96.72970 | 27317 ft | 430 kts | 132° |
| 2026-05-04 03:57 | 16.36099 | 96.75311 | 27794 ft | 433 kts | 132° |
| 2026-05-04 03:57 | 16.34095 | 96.77647 | 28252 ft | 436 kts | 132° |
| 2026-05-04 03:57 | 16.32086 | 96.79990 | 28695 ft | 439 kts | 132° |
| 2026-05-04 03:57 | 16.30033 | 96.82381 | 29127 ft | 442 kts | 132° |
| 2026-05-04 03:58 | 16.25949 | 96.87138 | 29940 ft | 448 kts | 132° |
| 2026-05-04 03:58 | 16.23859 | 96.89570 | 30333 ft | 450 kts | 132° |
| 2026-05-04 03:58 | 16.21765 | 96.92007 | 30711 ft | 453 kts | 132° |
| 2026-05-04 03:59 | 16.19691 | 96.94419 | 31132 ft | 454 kts | 132° |
| 2026-05-04 03:59 | 16.17604 | 96.96846 | 31752 ft | 450 kts | 132° |
| 2026-05-04 03:59 | 16.15509 | 96.99281 | 32269 ft | 449 kts | 132° |
| 2026-05-04 03:59 | 16.13443 | 97.01681 | 32765 ft | 448 kts | 132° |
| 2026-05-04 04:00 | 16.11381 | 97.04076 | 33260 ft | 446 kts | 132° |
| 2026-05-04 04:00 | 16.09317 | 97.06472 | 33737 ft | 445 kts | 132° |
| 2026-05-04 04:00 | 16.07257 | 97.08863 | 34206 ft | 444 kts | 132° |
| 2026-05-04 04:00 | 16.05204 | 97.11243 | 34664 ft | 444 kts | 132° |
| 2026-05-04 04:01 | 16.03144 | 97.13633 | 34980 ft | 443 kts | 132° |
| 2026-05-04 04:01 | 16.01082 | 97.16023 | 34999 ft | 448 kts | 132° |
| 2026-05-04 04:01 | 15.96970 | 97.20789 | 35000 ft | 444 kts | 132° |
| 2026-05-04 04:02 | 15.92865 | 97.25542 | 35000 ft | 442 kts | 132° |
| 2026-05-04 04:02 | 15.88774 | 97.30276 | 35000 ft | 443 kts | 132° |
| 2026-05-04 04:03 | 15.76883 | 97.44018 | 34997 ft | 443 kts | 132° |
| 2026-05-04 04:03 | 15.11001 | 98.19691 | 35028 ft | 442 kts | 132° |
| 2026-05-04 04:04 | 15.05802 | 98.27148 | 35004 ft | 442 kts | 112° |
| 2026-05-04 04:04 | 15.03420 | 98.33031 | 35000 ft | 442 kts | 115° |
| 2026-05-04 04:05 | 15.00747 | 98.38715 | 35000 ft | 442 kts | 116° |
| 2026-05-04 04:05 | 14.98020 | 98.44381 | 35000 ft | 442 kts | 116° |
| 2026-05-04 04:06 | 14.95237 | 98.50059 | 35000 ft | 442 kts | 117° |
| 2026-05-04 04:06 | 14.68433 | 99.03909 | 34972 ft | 442 kts | 117° |
| 2026-05-04 04:07 | 14.54363 | 99.31638 | 34660 ft | 437 kts | 117° |
| 2026-05-04 04:07 | 14.52973 | 99.34412 | 33955 ft | 433 kts | 117° |
| 2026-05-04 04:07 | 14.51605 | 99.37140 | 33200 ft | 436 kts | 117° |
| 2026-05-04 04:08 | 14.50207 | 99.39917 | 32410 ft | 441 kts | 117° |
| 2026-05-04 04:08 | 14.48789 | 99.42728 | 31590 ft | 441 kts | 117° |
| 2026-05-04 04:08 | 14.47395 | 99.45493 | 30772 ft | 439 kts | 117° |
| 2026-05-04 04:08 | 14.46003 | 99.48302 | 30121 ft | 436 kts | 115° |
| 2026-05-04 04:09 | 14.44845 | 99.51166 | 29532 ft | 436 kts | 109° |
| 2026-05-04 04:09 | 14.44032 | 99.54116 | 28898 ft | 428 kts | 101° |
| 2026-05-04 04:09 | 14.43648 | 99.57150 | 28278 ft | 420 kts | 94° |
| 2026-05-04 04:09 | 14.43479 | 99.60117 | 27680 ft | 421 kts | 93° |
| 2026-05-04 04:10 | 14.43289 | 99.63112 | 27064 ft | 419 kts | 94° |
| 2026-05-04 04:10 | 14.43146 | 99.65100 | 26653 ft | 413 kts | 94° |
| 2026-05-04 04:10 | 14.42874 | 99.68970 | 25856 ft | 404 kts | 94° |
| 2026-05-04 04:10 | 14.42681 | 99.71879 | 25255 ft | 409 kts | 94° |
| 2026-05-04 04:11 | 14.42491 | 99.74777 | 24645 ft | 401 kts | 94° |
| 2026-05-04 04:11 | 14.42306 | 99.77597 | 24057 ft | 393 kts | 94° |
| 2026-05-04 04:11 | 14.42125 | 99.80388 | 23474 ft | 395 kts | 94° |
| 2026-05-04 04:11 | 14.41941 | 99.83223 | 22872 ft | 392 kts | 94° |
| 2026-05-04 04:12 | 14.41822 | 99.85075 | 22479 ft | 386 kts | 94° |
| 2026-05-04 04:12 | 14.41588 | 99.88694 | 21715 ft | 381 kts | 94° |
| 2026-05-04 04:12 | 14.41411 | 99.91443 | 21127 ft | 382 kts | 94° |
| 2026-05-04 04:12 | 14.41239 | 99.94114 | 20553 ft | 375 kts | 94° |
| 2026-05-04 04:13 | 14.41068 | 99.96764 | 19985 ft | 369 kts | 94° |
| 2026-05-04 04:13 | 14.40895 | 99.99444 | 19408 ft | 373 kts | 94° |
| 2026-05-04 04:13 | 14.40727 | 100.02052 | 18845 ft | 366 kts | 94° |
| 2026-05-04 04:13 | 14.40522 | 100.04639 | 18290 ft | 360 kts | 97° |
| 2026-05-04 04:14 | 14.40067 | 100.07203 | 18017 ft | 360 kts | 103° |
| 2026-05-04 04:14 | 14.39465 | 100.09707 | 18000 ft | 365 kts | 104° |
| 2026-05-04 04:14 | 14.38854 | 100.12251 | 17999 ft | 366 kts | 104° |
| 2026-05-04 04:14 | 14.38446 | 100.13956 | 17984 ft | 363 kts | 104° |
| 2026-05-04 04:15 | 14.37655 | 100.17195 | 17774 ft | 339 kts | 104° |
| 2026-05-04 04:15 | 14.37277 | 100.18728 | 17725 ft | 326 kts | 104° |
| 2026-05-04 04:15 | 14.36538 | 100.21706 | 17292 ft | 315 kts | 104° |
| 2026-05-04 04:15 | 14.36001 | 100.23864 | 16894 ft | 315 kts | 104° |
| 2026-05-04 04:16 | 14.35454 | 100.26057 | 16480 ft | 316 kts | 104° |
| 2026-05-04 04:16 | 14.34913 | 100.28220 | 16072 ft | 310 kts | 104° |
| 2026-05-04 04:16 | 14.34380 | 100.30350 | 15671 ft | 306 kts | 104° |
| 2026-05-04 04:16 | 14.33844 | 100.32489 | 15271 ft | 311 kts | 104° |
| 2026-05-04 04:17 | 14.33311 | 100.34617 | 15012 ft | 304 kts | 104° |
| 2026-05-04 04:17 | 14.32778 | 100.36746 | 15001 ft | 309 kts | 104° |
| 2026-05-04 04:17 | 14.32240 | 100.38887 | 14999 ft | 311 kts | 104° |
| 2026-05-04 04:17 | 14.31693 | 100.41067 | 14999 ft | 311 kts | 104° |
| 2026-05-04 04:18 | 14.31153 | 100.43217 | 14999 ft | 311 kts | 104° |
| 2026-05-04 04:18 | 14.30613 | 100.45367 | 14999 ft | 311 kts | 104° |
| 2026-05-04 04:18 | 14.30254 | 100.46796 | 15000 ft | 311 kts | 104° |
| 2026-05-04 04:18 | 14.29540 | 100.49638 | 14924 ft | 303 kts | 104° |
| 2026-05-04 04:19 | 14.29014 | 100.51730 | 14716 ft | 300 kts | 104° |
| 2026-05-04 04:19 | 14.28486 | 100.53828 | 14493 ft | 306 kts | 104° |
| 2026-05-04 04:19 | 14.27961 | 100.55916 | 14261 ft | 296 kts | 104° |
| 2026-05-04 04:19 | 14.27437 | 100.57996 | 14043 ft | 305 kts | 104° |
| 2026-05-04 04:20 | 14.26911 | 100.60082 | 13807 ft | 296 kts | 104° |
| 2026-05-04 04:20 | 14.26397 | 100.62125 | 13588 ft | 295 kts | 104° |
| 2026-05-04 04:20 | 14.25778 | 100.64106 | 13346 ft | 285 kts | 117° |
| 2026-05-04 04:20 | 14.24529 | 100.65630 | 13137 ft | 274 kts | 146° |
| 2026-05-04 04:21 | 14.22826 | 100.66402 | 12863 ft | 268 kts | 167° |
| 2026-05-04 04:21 | 14.21004 | 100.66489 | 12587 ft | 262 kts | 189° |
| 2026-05-04 04:21 | 14.19272 | 100.66040 | 12310 ft | 258 kts | 195° |
| 2026-05-04 04:21 | 14.17557 | 100.65572 | 12036 ft | 254 kts | 194° |
| 2026-05-04 04:22 | 14.15795 | 100.65118 | 11748 ft | 260 kts | 194° |
| 2026-05-04 04:22 | 14.14055 | 100.64661 | 11451 ft | 256 kts | 194° |
| 2026-05-04 04:22 | 14.12349 | 100.64212 | 11172 ft | 251 kts | 194° |
| 2026-05-04 04:22 | 14.10699 | 100.63779 | 10880 ft | 243 kts | 194° |
| 2026-05-04 04:23 | 14.09098 | 100.63357 | 10607 ft | 235 kts | 194° |
| 2026-05-04 04:23 | 14.07540 | 100.62949 | 10345 ft | 228 kts | 194° |
| 2026-05-04 04:23 | 14.06026 | 100.62550 | 10091 ft | 221 kts | 194° |
| 2026-05-04 04:23 | 14.04560 | 100.62165 | 9871 ft | 213 kts | 194° |
| 2026-05-04 04:24 | 14.03162 | 100.61798 | 9646 ft | 207 kts | 194° |
| 2026-05-04 04:24 | 14.01789 | 100.61437 | 9422 ft | 201 kts | 194° |
| 2026-05-04 04:24 | 14.00437 | 100.61209 | 9215 ft | 194 kts | 174° |
| 2026-05-04 04:24 | 13.99261 | 100.61781 | 8988 ft | 193 kts | 130° |
| 2026-05-04 04:25 | 13.98692 | 100.63028 | 8731 ft | 193 kts | 104° |
| 2026-05-04 04:25 | 13.98352 | 100.64358 | 8494 ft | 193 kts | 106° |
| 2026-05-04 04:25 | 13.97987 | 100.65673 | 8278 ft | 192 kts | 105° |
| 2026-05-04 04:25 | 13.97638 | 100.66995 | 8067 ft | 191 kts | 105° |
| 2026-05-04 04:26 | 13.97404 | 100.67881 | 7925 ft | 191 kts | 105° |
| 2026-05-04 04:26 | 13.96945 | 100.69631 | 7626 ft | 190 kts | 105° |
| 2026-05-04 04:26 | 13.96641 | 100.70960 | 7416 ft | 189 kts | 94° |
| 2026-05-04 04:26 | 13.96974 | 100.72231 | 7218 ft | 188 kts | 49° |
| 2026-05-04 04:27 | 13.98080 | 100.72857 | 7038 ft | 189 kts | 8° |
| 2026-05-04 04:27 | 13.99396 | 100.72998 | 6813 ft | 189 kts | 13° |
| 2026-05-04 04:27 | 14.00627 | 100.73439 | 6599 ft | 187 kts | 19° |
| 2026-05-04 04:27 | 14.01863 | 100.73827 | 6389 ft | 187 kts | 15° |
| 2026-05-04 04:28 | 14.03059 | 100.74320 | 6193 ft | 186 kts | 40° |
| 2026-05-04 04:28 | 14.03733 | 100.75413 | 6020 ft | 183 kts | 75° |
| 2026-05-04 04:28 | 14.03798 | 100.76721 | 5700 ft | 185 kts | 105° |
| 2026-05-04 04:28 | 14.03148 | 100.77826 | 5404 ft | 184 kts | 140° |
| 2026-05-04 04:29 | 14.02027 | 100.78400 | 5117 ft | 183 kts | 171° |
| 2026-05-04 04:29 | 14.00771 | 100.78249 | 4818 ft | 182 kts | 205° |
| 2026-05-04 04:29 | 13.99830 | 100.77436 | 4530 ft | 182 kts | 236° |
| 2026-05-04 04:29 | 13.99092 | 100.76377 | 4260 ft | 181 kts | 221° |
| 2026-05-04 04:30 | 13.97952 | 100.75938 | 3924 ft | 181 kts | 174° |
| 2026-05-04 04:30 | 13.96756 | 100.76264 | 3710 ft | 177 kts | 164° |
| 2026-05-04 04:30 | 13.95581 | 100.76550 | 3481 ft | 173 kts | 167° |
| 2026-05-04 04:30 | 13.94431 | 100.76815 | 3305 ft | 166 kts | 167° |
| 2026-05-04 04:31 | 13.93309 | 100.77077 | 3241 ft | 166 kts | 167° |
| 2026-05-04 04:31 | 13.92166 | 100.77343 | 3181 ft | 167 kts | 167° |
| 2026-05-04 04:31 | 13.91040 | 100.77605 | 3126 ft | 167 kts | 167° |
| 2026-05-04 04:31 | 13.89908 | 100.77869 | 3071 ft | 167 kts | 167° |
| 2026-05-04 04:32 | 13.88761 | 100.78136 | 3015 ft | 167 kts | 167° |
| 2026-05-04 04:32 | 13.87637 | 100.78397 | 2962 ft | 167 kts | 168° |
| 2026-05-04 04:32 | 13.86493 | 100.78397 | 2882 ft | 168 kts | 190° |
| 2026-05-04 04:32 | 13.85344 | 100.78177 | 2752 ft | 167 kts | 191° |
| 2026-05-04 04:33 | 13.84196 | 100.77934 | 2594 ft | 166 kts | 192° |
| 2026-05-04 04:33 | 13.83114 | 100.77670 | 2442 ft | 156 kts | 194° |
| 2026-05-04 04:33 | 13.82071 | 100.77399 | 2312 ft | 154 kts | 194° |
| 2026-05-04 04:33 | 13.81036 | 100.77128 | 2180 ft | 155 kts | 194° |
| 2026-05-04 04:34 | 13.79994 | 100.76854 | 1988 ft | 153 kts | 194° |
| 2026-05-04 04:34 | 13.78964 | 100.76582 | 1787 ft | 152 kts | 194° |
| 2026-05-04 04:34 | 13.77999 | 100.76328 | 1594 ft | 141 kts | 194° |
| 2026-05-04 04:34 | 13.77089 | 100.76088 | 1417 ft | 133 kts | 194° |
| 2026-05-04 04:35 | 13.76197 | 100.75853 | 1220 ft | 129 kts | 194° |
| 2026-05-04 04:35 | 13.75346 | 100.75629 | 1049 ft | 127 kts | 194° |
| 2026-05-04 04:35 | 13.74504 | 100.75407 | 873 ft | 122 kts | 194° |
| 2026-05-04 04:35 | 13.73678 | 100.75190 | 722 ft | 122 kts | 194° |
| 2026-05-04 04:36 | 13.72863 | 100.74976 | 559 ft | 121 kts | 194° |
| 2026-05-04 04:36 | 13.72052 | 100.74762 | 398 ft | 121 kts | 194° |
| 2026-05-04 04:36 | 13.71242 | 100.74548 | 238 ft | 121 kts | 194° |
| 2026-05-04 04:36 | 13.70423 | 100.74340 | 80 ft | 120 kts | 193° |
| 2026-05-04 04:37 | 13.69036 | 100.73974 | 16 ft | 19 kts | 191° |
| 2026-05-04 04:37 | 13.68951 | 100.73959 | 16 ft | 18 kts | 182° |
| 2026-05-04 04:38 | 13.68781 | 100.73992 | 16 ft | 16 kts | 165° |
| 2026-05-04 04:38 | 13.68724 | 100.74033 | 16 ft | 0 kts | 107° |
| 2026-05-04 04:39 | 13.68718 | 100.74053 | 16 ft | 8 kts | 105° |
| 2026-05-04 04:39 | 13.68689 | 100.74166 | 16 ft | 22 kts | 105° |
| 2026-05-04 04:39 | 13.68640 | 100.74366 | 16 ft | 33 kts | 104° |
| 2026-05-04 04:40 | 13.68576 | 100.74625 | 16 ft | 40 kts | 104° |
| 2026-05-04 04:40 | 13.68504 | 100.74912 | 16 ft | 40 kts | 104° |
| 2026-05-04 04:40 | 13.68473 | 100.75085 | 16 ft | 15 kts | 72° |
| 2026-05-04 04:40 | 13.68577 | 100.75135 | 16 ft | 18 kts | 13° |
| 2026-05-04 04:41 | 13.68666 | 100.75176 | 16 ft | 11 kts | 76° |
| 2026-05-04 04:41 | 13.68679 | 100.75239 | 16 ft | 7 kts | 91° |
| 2026-05-04 04:41 | 13.68675 | 100.75262 | 16 ft | 0 kts | 106° |
| 2026-05-04 04:42 | 13.68674 | 100.75267 | 16 ft | 0 kts | 104° |